createdAt,value
2023-04-19T00:01:13.695Z,64.46
2023-04-19T00:02:41.618Z,64.63
2023-04-19T00:04:04.400Z,64.40
2023-04-19T00:05:28.431Z,64.39
2023-04-19T00:06:54.092Z,64.45
2023-04-19T00:08:19.299Z,64.47
2023-04-19T00:09:40.797Z,64.61
2023-04-19T00:11:38.571Z,64.45
2023-04-19T00:13:05.358Z,64.41
2023-04-19T00:14:30.925Z,64.42
2023-04-19T00:15:54.686Z,64.40
2023-04-19T00:19:22.846Z,64.40
2023-04-19T00:20:52.707Z,64.26
2023-04-19T00:22:20.336Z,64.18
2023-04-19T00:23:43.795Z,64.19
2023-04-19T00:25:05.322Z,64.21
2023-04-19T00:26:30.327Z,64.35
2023-04-19T00:27:52.856Z,64.26
2023-04-19T00:29:16.388Z,64.49
2023-04-19T00:30:37.734Z,64.35
2023-04-19T00:31:59.972Z,64.49
2023-04-19T00:33:22.963Z,64.55
2023-04-19T00:34:45.091Z,64.55
2023-04-19T00:36:12.908Z,64.80
2023-04-19T00:37:45.453Z,64.97
2023-04-19T00:39:09.179Z,64.66
2023-04-19T00:40:37.507Z,64.45
2023-04-19T00:42:01.572Z,64.68
2023-04-19T00:44:06.321Z,64.72
2023-04-19T00:45:33.688Z,64.94
2023-04-19T00:47:22.813Z,64.64
2023-04-19T00:48:52.374Z,64.70
2023-04-19T00:50:14.297Z,64.81
2023-04-19T00:51:40.882Z,64.70
2023-04-19T00:53:04.973Z,64.78
2023-04-19T00:54:27.253Z,64.71
2023-04-19T00:55:51.074Z,64.62
2023-04-19T00:57:19.080Z,64.57
2023-04-19T00:58:41.767Z,63.97
2023-04-19T01:00:06.353Z,64.36
2023-04-19T01:01:28.972Z,64.08
2023-04-19T01:02:50.216Z,63.88
2023-04-19T01:04:17.796Z,63.71
2023-04-19T01:05:42.178Z,63.58
2023-04-19T01:07:09.332Z,63.21
2023-04-19T01:08:31.399Z,63.39
2023-04-19T01:09:52.498Z,63.37
2023-04-19T01:11:16.962Z,63.20
2023-04-19T01:12:40.743Z,62.91
2023-04-19T01:14:01.726Z,62.90
2023-04-19T01:15:30.100Z,63.01
2023-04-19T01:16:51.891Z,63.04
2023-04-19T01:18:14.201Z,62.94
2023-04-19T01:19:41.825Z,62.66
2023-04-19T01:21:13.103Z,62.80
2023-04-19T01:22:42.748Z,62.77
2023-04-19T01:26:24.927Z,62.89
2023-04-19T01:27:46.186Z,62.76
2023-04-19T01:29:08.152Z,62.80
2023-04-19T01:30:29.580Z,62.59
2023-04-19T01:31:54.096Z,62.56
2023-04-19T01:33:18.549Z,62.50
2023-04-19T01:34:43.026Z,62.40
2023-04-19T01:36:05.992Z,62.32
2023-04-19T01:37:31.653Z,62.20
2023-04-19T01:38:55.861Z,62.09
2023-04-19T01:40:19.202Z,61.87
2023-04-19T01:41:40.668Z,61.81
2023-04-19T01:43:05.306Z,61.81
2023-04-19T01:44:29.298Z,61.50
2023-04-19T01:45:51.750Z,61.55
2023-04-19T01:47:16.615Z,61.31
2023-04-19T01:48:41.934Z,61.20
2023-04-19T01:50:04.332Z,61.37
2023-04-19T01:52:24.674Z,61.11
2023-04-19T01:53:47.326Z,61.08
2023-04-19T01:55:11.308Z,60.73
2023-04-19T01:56:35.556Z,60.35
2023-04-19T01:57:58.819Z,60.02
2023-04-19T01:59:20.250Z,59.85
2023-04-19T02:00:43.176Z,59.60
2023-04-19T02:02:11.972Z,58.64
2023-04-19T02:03:36.076Z,58.53
2023-04-19T02:05:02.265Z,58.20
2023-04-19T02:06:23.598Z,57.85
2023-04-19T02:07:46.586Z,57.54
2023-04-19T02:09:08.666Z,56.86
2023-04-19T02:10:32.445Z,56.95
2023-04-19T02:11:53.400Z,56.59
2023-04-19T02:13:17.073Z,56.68
2023-04-19T02:14:42.288Z,56.58
2023-04-19T02:16:06.277Z,56.67
2023-04-19T02:17:29.166Z,56.70
2023-04-19T02:18:52.356Z,56.68
2023-04-19T02:20:14.604Z,56.61
2023-04-19T02:21:35.212Z,57.08
2023-04-19T02:22:57.459Z,57.12
2023-04-19T02:24:18.363Z,57.04
2023-04-19T02:25:42.270Z,56.97
2023-04-19T02:27:04.659Z,57.08
2023-04-19T02:28:27.281Z,57.01
2023-04-19T02:29:49.836Z,56.76
2023-04-19T02:31:11.254Z,56.66
2023-04-19T02:32:33.722Z,56.45
2023-04-19T02:33:55.218Z,56.34
2023-04-19T02:35:18.029Z,56.09
2023-04-19T02:36:39.456Z,56.07
2023-04-19T02:38:02.067Z,55.81
2023-04-19T02:39:24.229Z,55.65
2023-04-19T02:40:46.245Z,55.84
2023-04-19T02:42:11.232Z,55.72
2023-04-19T02:43:33.404Z,55.24
2023-04-19T02:44:56.062Z,55.06
2023-04-19T02:46:19.725Z,54.85
2023-04-19T02:47:42.194Z,54.72
2023-04-19T02:49:11.911Z,54.44
2023-04-19T02:50:38.654Z,54.19
2023-04-19T02:52:04.283Z,54.22
2023-04-19T02:53:28.614Z,54.09
2023-04-19T02:54:55.952Z,54.10
2023-04-19T02:56:28.897Z,54.01
2023-04-19T02:57:50.398Z,53.87
2023-04-19T02:59:40.164Z,54.20
2023-04-19T03:01:03.930Z,54.05
2023-04-19T03:02:32.862Z,54.32
2023-04-19T03:04:11.164Z,54.58
2023-04-19T03:05:41.598Z,54.61
2023-04-19T03:07:03.902Z,54.97
2023-04-19T03:08:27.830Z,54.25
2023-04-19T03:09:55.901Z,54.10
2023-04-19T03:11:18.845Z,54.16
2023-04-19T03:12:45.940Z,53.62
2023-04-19T03:14:10.001Z,53.61
2023-04-19T03:15:36.653Z,53.56
2023-04-19T03:16:59.050Z,53.45
2023-04-19T03:18:21.036Z,53.36
2023-04-19T03:19:43.462Z,53.09
2023-04-19T03:21:08.990Z,52.88
2023-04-19T03:22:48.432Z,52.87
2023-04-19T03:24:11.254Z,52.63
2023-04-19T03:26:36.759Z,52.40
2023-04-19T03:28:03.779Z,52.50
2023-04-19T03:29:49.207Z,52.48
2023-04-19T03:31:11.815Z,52.37
2023-04-19T03:32:35.003Z,52.08
2023-04-19T03:33:56.644Z,52.05
2023-04-19T03:35:26.410Z,51.86
2023-04-19T03:36:50.886Z,52.02
2023-04-19T03:38:13.209Z,51.89
2023-04-19T03:39:38.372Z,51.93
2023-04-19T03:41:04.869Z,52.04
2023-04-19T03:42:32.486Z,52.09
2023-04-19T03:44:21.030Z,52.19
2023-04-19T03:45:43.948Z,52.26
2023-04-19T03:47:09.108Z,52.54
2023-04-19T03:48:36.657Z,52.55
2023-04-19T03:49:59.069Z,52.60
2023-04-19T03:51:22.023Z,52.51
2023-04-19T03:52:44.541Z,52.45
2023-04-19T03:54:08.778Z,52.66
2023-04-19T03:55:32.664Z,52.65
2023-04-19T03:56:57.491Z,52.71
2023-04-19T03:58:22.854Z,52.61
2023-04-19T03:59:53.425Z,52.56
2023-04-19T04:03:50.277Z,52.46
2023-04-19T04:05:18.265Z,52.39
2023-04-19T04:06:46.245Z,52.30
2023-04-19T04:08:14.101Z,52.20
2023-04-19T04:09:50.319Z,51.86
2023-04-19T04:11:15.452Z,52.03
2023-04-19T04:12:40.963Z,51.94
2023-04-19T04:14:16.721Z,51.80
2023-04-19T04:15:52.953Z,52.05
2023-04-19T04:17:45.015Z,51.96
2023-04-19T04:19:13.994Z,52.06
2023-04-19T04:20:58.130Z,52.65
2023-04-19T04:23:01.657Z,53.56
2023-04-19T04:24:27.333Z,54.33
2023-04-19T04:28:08.719Z,56.24
2023-04-19T04:29:29.871Z,57.43
2023-04-19T04:31:07.932Z,58.81
2023-04-19T04:32:31.324Z,59.06
2023-04-19T04:33:56.624Z,59.88
2023-04-19T04:35:20.889Z,60.29
2023-04-19T04:36:51.968Z,60.58
2023-04-19T04:38:24.080Z,61.26
2023-04-19T04:39:48.493Z,61.96
2023-04-19T04:41:10.830Z,61.97
2023-04-19T04:42:33.677Z,62.04
2023-04-19T04:44:11.578Z,62.46
2023-04-19T04:45:35.609Z,62.73
2023-04-19T04:47:02.179Z,62.80
2023-04-19T04:48:27.339Z,63.01
2023-04-19T04:50:01.023Z,63.50
2023-04-19T04:51:51.407Z,63.77
2023-04-19T04:53:30.723Z,64.44
2023-04-19T04:55:15.002Z,64.89
2023-04-19T04:56:50.424Z,65.38
2023-04-19T04:58:13.353Z,65.92
2023-04-19T05:00:36.874Z,66.24
2023-04-19T05:02:15.315Z,66.57
2023-04-19T05:03:40.811Z,66.68
2023-04-19T05:05:15.090Z,67.14
2023-04-19T05:06:41.314Z,67.51
2023-04-19T05:08:08.096Z,67.74
2023-04-19T05:09:31.964Z,67.68
2023-04-19T05:11:42.160Z,68.09
2023-04-19T05:13:04.293Z,67.91
2023-04-19T05:14:42.810Z,67.65
2023-04-19T05:16:22.819Z,67.40
2023-04-19T05:18:05.306Z,67.74
2023-04-19T05:19:34.502Z,67.63
2023-04-19T05:21:05.353Z,67.79
2023-04-19T05:22:30.673Z,67.84
2023-04-19T05:24:05.648Z,67.79
2023-04-19T05:25:36.154Z,67.71
2023-04-19T05:27:22.588Z,67.64
2023-04-19T05:29:06.590Z,67.73
2023-04-19T05:30:56.160Z,67.78
2023-04-19T05:32:42.805Z,67.36
2023-04-19T05:34:37.997Z,66.62
2023-04-19T05:36:22.551Z,66.63
2023-04-19T05:37:59.270Z,66.19
2023-04-19T05:39:29.836Z,65.85
2023-04-19T05:40:57.597Z,65.51
2023-04-19T05:42:27.727Z,65.00
2023-04-19T05:43:52.153Z,64.86
2023-04-19T05:45:22.486Z,64.83
2023-04-19T05:46:43.970Z,64.21
2023-04-19T05:48:17.572Z,64.05
2023-04-19T05:50:15.216Z,63.69
2023-04-19T05:51:50.608Z,63.25
2023-04-19T05:53:29.888Z,63.05
2023-04-19T05:54:56.741Z,62.86
2023-04-19T05:56:25.045Z,62.81
2023-04-19T05:57:47.987Z,62.86
2023-04-19T05:59:14.202Z,62.77
2023-04-19T06:00:39.820Z,62.72
2023-04-19T06:02:19.207Z,62.33
2023-04-19T06:03:56.080Z,62.53
2023-04-19T06:05:43.767Z,62.22
2023-04-19T06:07:22.278Z,61.50
2023-04-19T06:08:55.026Z,61.39
2023-04-19T06:10:44.575Z,61.33
2023-04-19T06:12:24.188Z,60.95
2023-04-19T06:14:51.860Z,60.82
2023-04-19T06:32:09.299Z,59.13
2023-04-19T06:34:28.043Z,58.91
2023-04-19T06:36:21.278Z,58.13
2023-04-19T06:37:45.503Z,58.10
2023-04-19T06:42:26.275Z,56.69
2023-04-19T06:43:49.239Z,56.08
2023-04-19T06:45:52.532Z,55.22
2023-04-19T06:47:50.018Z,54.38
2023-04-19T06:49:18.599Z,53.11
2023-04-19T06:50:43.391Z,52.80
2023-04-19T06:52:09.936Z,52.69
2023-04-19T06:53:31.130Z,52.88
2023-04-19T06:56:45.889Z,51.72
2023-04-19T06:58:11.226Z,51.48
2023-04-19T07:00:12.890Z,50.90
2023-04-19T07:08:46.248Z,49.87
2023-04-19T07:10:23.852Z,49.21
2023-04-19T07:12:27.976Z,48.60
2023-04-19T07:16:54.111Z,48.12
2023-04-19T07:18:42.995Z,47.94
2023-04-19T07:20:49.211Z,47.56
2023-04-19T07:22:43.090Z,47.13
2023-04-19T07:24:12.973Z,47.12
2023-04-19T07:25:46.581Z,46.18
2023-04-19T07:27:08.968Z,45.78
2023-04-19T07:29:08.587Z,45.87
2023-04-19T07:30:47.570Z,45.67
2023-04-19T07:32:17.779Z,45.29
2023-04-19T07:34:33.690Z,45.98
2023-04-19T07:36:05.239Z,45.55
2023-04-19T07:37:28.242Z,45.11
2023-04-19T07:38:51.793Z,44.03
2023-04-19T07:40:22.097Z,43.10
2023-04-19T07:42:04.069Z,42.76
2023-04-19T07:43:44.322Z,43.77
2023-04-19T07:45:46.132Z,43.89
2023-04-19T07:47:12.334Z,43.22
2023-04-19T07:49:28.162Z,43.00
2023-04-19T08:19:31.376Z,28.39
2023-04-19T08:21:07.971Z,26.38
2023-04-19T08:23:29.699Z,26.25
2023-04-19T08:39:29.358Z,37.22
2023-04-19T08:41:23.464Z,37.11
2023-04-19T08:43:38.107Z,37.24
2023-04-19T08:45:32.361Z,38.62
2023-04-19T08:47:32.305Z,38.90
2023-04-19T08:49:07.742Z,39.51
2023-04-19T08:51:00.598Z,40.05
2023-04-19T08:53:21.096Z,41.06
2023-04-19T08:56:12.821Z,42.30
2023-04-19T08:58:28.385Z,43.09
2023-04-19T09:00:15.799Z,43.48
2023-04-19T09:02:02.597Z,43.67
2023-04-19T09:03:36.355Z,43.44
2023-04-19T09:05:03.387Z,43.21
2023-04-19T09:06:29.605Z,42.75
2023-04-19T09:07:56.748Z,42.91
2023-04-19T09:11:27.444Z,43.44
2023-04-19T09:13:02.966Z,43.35
2023-04-19T09:39:52.075Z,43.48
2023-04-19T09:41:17.680Z,43.09
2023-04-19T09:43:53.335Z,43.20
2023-04-19T09:47:43.407Z,44.26
2023-04-19T09:51:18.539Z,44.26
2023-04-19T09:53:32.981Z,43.76
2023-04-19T09:55:25.005Z,43.85
2023-04-19T09:57:12.507Z,43.41
2023-04-19T09:59:11.979Z,43.44
2023-04-19T10:00:48.893Z,43.29
2023-04-19T10:02:15.768Z,43.48
2023-04-19T10:03:46.521Z,43.39
2023-04-19T10:05:57.358Z,43.64
2023-04-19T10:07:30.071Z,44.24
2023-04-19T10:09:00.165Z,44.38
2023-04-19T10:13:07.391Z,44.71
2023-04-19T10:14:27.730Z,45.04
2023-04-19T10:16:45.108Z,45.38
2023-04-19T10:18:16.917Z,45.79
2023-04-19T10:19:44.648Z,45.69
2023-04-19T10:21:17.335Z,45.56
2023-04-19T10:22:40.683Z,45.65
2023-04-19T10:24:08.881Z,45.54
2023-04-19T10:25:37.977Z,45.83
2023-04-19T10:27:34.596Z,45.72
2023-04-19T10:29:09.052Z,45.62
2023-04-19T10:30:36.243Z,45.74
2023-04-19T10:31:59.159Z,45.59
2023-04-19T10:33:37.807Z,45.40
2023-04-19T10:35:04.456Z,45.24
2023-04-19T10:36:29.111Z,44.95
2023-04-19T10:38:13.669Z,45.05
2023-04-19T10:39:42.484Z,45.17
2023-04-19T10:41:18.806Z,44.80
2023-04-19T10:43:21.308Z,44.63
2023-04-19T10:44:43.975Z,44.56
2023-04-19T10:46:42.326Z,44.34
2023-04-19T10:48:17.872Z,44.34
2023-04-19T10:49:58.725Z,44.55
2023-04-19T10:51:44.463Z,44.68
2023-04-19T10:53:43.825Z,44.64
2023-04-19T11:04:43.533Z,44.81
2023-04-19T11:21:55.820Z,46.85
2023-04-19T11:24:16.338Z,47.00
2023-04-19T11:37:53.417Z,48.60
2023-04-19T11:42:18.084Z,48.73
2023-04-19T11:43:52.623Z,48.79
2023-04-19T11:45:40.091Z,48.87
2023-04-19T11:47:08.511Z,49.08
2023-04-19T11:49:59.089Z,49.31
2023-04-19T11:51:27.417Z,49.64
2023-04-19T11:52:57.697Z,50.11
2023-04-19T12:07:37.085Z,52.30
2023-04-19T12:09:30.525Z,52.44
2023-04-19T12:12:37.326Z,52.58
2023-04-19T12:14:39.333Z,52.55
2023-04-19T12:19:29.024Z,52.95
2023-04-19T12:27:52.922Z,52.91
2023-04-19T12:33:06.678Z,52.79
2023-04-19T12:34:32.535Z,52.85
2023-04-19T12:35:56.730Z,53.03
2023-04-19T12:37:22.793Z,53.04
2023-04-19T12:38:56.451Z,53.06
2023-04-19T12:40:36.487Z,53.47
2023-04-19T12:44:43.831Z,53.81
2023-04-19T12:46:24.133Z,53.93
2023-04-19T12:47:58.208Z,53.87
2023-04-19T12:49:48.358Z,54.00
2023-04-19T12:51:25.095Z,53.94
2023-04-19T12:53:39.406Z,53.90
2023-04-19T12:59:30.284Z,54.29
2023-04-19T13:01:55.945Z,54.12
2023-04-19T13:06:24.843Z,54.13
2023-04-19T13:08:14.805Z,53.88
2023-04-19T13:09:40.170Z,53.99
2023-04-19T13:13:25.911Z,53.61
2023-04-19T13:31:27.030Z,53.32
2023-04-19T14:26:18.930Z,52.58
2023-04-19T14:28:05.123Z,52.44
2023-04-19T14:29:36.048Z,52.40
2023-04-19T14:31:17.495Z,52.04
2023-04-19T14:32:52.184Z,51.78
2023-04-19T14:34:16.985Z,51.62
2023-04-19T14:36:01.663Z,51.53
2023-04-19T14:37:48.007Z,51.45
2023-04-19T14:42:37.535Z,51.63
2023-04-19T14:44:02.855Z,51.32
2023-04-19T14:45:28.091Z,51.35
2023-04-19T14:46:50.838Z,50.97
2023-04-19T14:56:12.392Z,50.31
2023-04-19T14:59:05.715Z,50.10
2023-04-19T15:00:15.891Z,49.96
2023-04-19T15:06:03.005Z,49.66
2023-04-19T15:10:11.220Z,49.70
2023-04-19T15:11:35.126Z,49.32
2023-04-19T15:14:43.515Z,48.92
2023-04-19T15:16:37.572Z,48.52
2023-04-19T15:18:00.348Z,48.89
2023-04-19T15:19:22.904Z,48.53
2023-04-19T15:20:45.142Z,48.39
2023-04-19T15:22:07.312Z,48.24
2023-04-19T15:23:28.305Z,47.99
2023-04-19T15:24:53.040Z,47.95
2023-04-19T15:26:15.368Z,48.10
2023-04-19T15:27:39.250Z,48.07
2023-04-19T15:29:04.131Z,48.08
2023-04-19T15:30:26.471Z,47.86
2023-04-19T15:31:53.291Z,47.79
2023-04-19T15:33:21.368Z,47.74
2023-04-19T15:37:48.624Z,48.36
2023-04-19T15:39:21.199Z,48.37
2023-04-19T15:40:54.856Z,48.46
2023-04-19T15:46:21.316Z,48.61
2023-04-19T15:47:50.085Z,48.79
2023-04-19T15:49:12.566Z,48.83
2023-04-19T15:50:42.295Z,48.74
2023-04-19T15:52:11.254Z,48.53
2023-04-19T15:53:35.681Z,48.84
2023-04-19T15:55:08.457Z,48.71
2023-04-19T15:56:31.533Z,48.88
2023-04-19T15:59:39.797Z,48.52
2023-04-19T16:01:03.804Z,48.32
2023-04-19T16:02:26.557Z,48.23
2023-04-19T16:03:48.848Z,48.01
2023-04-19T16:05:25.288Z,48.19
2023-04-19T16:06:53.382Z,48.14
2023-04-19T16:08:36.485Z,48.12
2023-04-19T16:10:06.279Z,47.92
2023-04-19T16:11:32.595Z,47.92
2023-04-19T16:13:08.323Z,48.00
2023-04-19T16:14:32.560Z,48.00
2023-04-19T16:15:57.380Z,48.03
2023-04-19T16:17:36.248Z,48.39
2023-04-19T16:18:59.886Z,48.70
2023-04-19T16:20:56.113Z,48.86
2023-04-19T16:23:23.652Z,48.93
2023-04-19T16:24:54.925Z,49.08
2023-04-19T16:26:28.125Z,49.13
2023-04-19T16:27:52.960Z,49.42
2023-04-19T16:29:50.444Z,49.61
2023-04-19T16:31:46.431Z,49.80
2023-04-19T16:34:18.059Z,50.38
2023-04-19T16:37:50.483Z,50.98
2023-04-19T16:39:14.583Z,51.06
2023-04-19T16:40:39.763Z,50.75
2023-04-19T16:42:06.808Z,51.17
2023-04-19T16:43:31.885Z,51.24
2023-04-19T16:45:31.182Z,51.46
2023-04-19T16:47:09.139Z,51.53
2023-04-19T16:48:37.845Z,51.40
2023-04-19T16:50:02.419Z,51.68
2023-04-19T16:51:35.218Z,51.65
2023-04-19T16:55:35.447Z,52.01
2023-04-19T16:58:42.474Z,51.85
2023-04-19T17:00:13.298Z,51.90
2023-04-19T17:01:40.324Z,51.79
2023-04-19T17:03:02.035Z,51.82
2023-04-19T17:04:44.939Z,51.63
2023-04-19T17:08:33.844Z,52.02
2023-04-19T17:10:42.038Z,52.01
2023-04-19T17:12:13.318Z,52.13
2023-04-19T17:13:43.001Z,52.43
2023-04-19T17:15:16.063Z,52.64
2023-04-19T17:17:34.419Z,52.42
2023-04-19T17:19:29.140Z,52.56
2023-04-19T17:20:53.653Z,52.46
2023-04-19T17:22:39.078Z,52.35
2023-04-19T17:24:25.003Z,52.38
2023-04-19T17:25:57.713Z,52.36
2023-04-19T17:29:25.727Z,52.50
2023-04-19T17:30:55.882Z,52.70
2023-04-19T17:32:18.273Z,52.72
2023-04-19T17:33:45.654Z,52.91
2023-04-19T17:35:13.399Z,52.96
2023-04-19T17:36:38.103Z,53.17
2023-04-19T17:38:03.966Z,53.10
2023-04-19T17:39:36.984Z,53.14
2023-04-19T17:40:59.419Z,53.06
2023-04-19T17:42:21.576Z,53.25
2023-04-19T17:43:44.004Z,53.38
2023-04-19T17:45:11.113Z,53.18
2023-04-19T17:46:33.280Z,53.55
2023-04-19T17:47:56.390Z,53.44
2023-04-19T17:49:20.255Z,53.59
2023-04-19T17:50:44.641Z,53.76
2023-04-19T17:52:11.643Z,53.57
2023-04-19T17:53:46.459Z,53.35
2023-04-19T17:55:09.605Z,53.26
2023-04-19T17:56:40.362Z,53.45
2023-04-19T17:58:02.523Z,53.29
2023-04-19T17:59:27.682Z,53.43
2023-04-19T18:00:50.198Z,53.44
2023-04-19T18:02:15.216Z,53.64
2023-04-19T18:03:50.922Z,53.49
2023-04-19T18:05:16.891Z,53.56
2023-04-19T18:06:44.049Z,53.86
2023-04-19T18:08:06.767Z,53.85
2023-04-19T18:09:30.851Z,53.91
2023-04-19T18:11:03.854Z,53.90
2023-04-19T18:12:33.808Z,53.82
2023-04-19T18:13:56.909Z,54.03
2023-04-19T18:15:26.760Z,54.26
2023-04-19T18:16:49.085Z,54.13
2023-04-19T18:18:13.251Z,54.08
2023-04-19T18:19:37.452Z,54.24
2023-04-19T18:21:02.319Z,54.30
2023-04-19T18:22:27.035Z,54.57
2023-04-19T18:24:00.951Z,54.22
2023-04-19T18:25:27.416Z,54.24
2023-04-19T18:26:52.242Z,54.23
2023-04-19T18:28:16.541Z,54.60
2023-04-19T18:30:22.095Z,54.54
2023-04-19T18:32:28.796Z,54.48
2023-04-19T18:34:03.084Z,54.74
2023-04-19T18:35:27.912Z,54.67
2023-04-19T18:37:01.123Z,54.70
2023-04-19T18:38:29.901Z,54.91
2023-04-19T18:39:54.755Z,54.93
2023-04-19T18:41:22.515Z,54.86
2023-04-19T18:42:54.396Z,54.81
2023-04-19T18:44:34.680Z,54.58
2023-04-19T18:46:08.782Z,54.74
2023-04-19T18:48:50.279Z,54.75
2023-04-19T18:50:02.618Z,54.76
2023-04-19T18:51:33.796Z,55.06
2023-04-19T18:53:04.751Z,54.49
2023-04-19T18:54:35.894Z,54.79
2023-04-19T18:56:01.950Z,54.62
2023-04-19T18:57:28.441Z,54.82
2023-04-19T18:59:02.938Z,54.68
2023-04-19T19:00:31.009Z,54.76
2023-04-19T19:02:40.948Z,54.61
2023-04-19T19:04:46.803Z,54.75
2023-04-19T19:06:26.104Z,54.53
2023-04-19T19:07:50.803Z,54.49
2023-04-19T19:09:26.429Z,54.44
2023-04-19T19:11:18.270Z,54.85
2023-04-19T19:12:49.625Z,55.05
2023-04-19T19:14:30.598Z,54.89
2023-04-19T19:15:56.150Z,55.14
2023-04-19T19:17:32.555Z,54.98
2023-04-19T19:19:08.759Z,54.90
2023-04-19T19:20:45.238Z,55.06
2023-04-19T19:22:22.470Z,55.03
2023-04-19T19:23:59.880Z,55.23
2023-04-19T19:27:37.910Z,55.29
2023-04-19T19:29:02.033Z,55.46
2023-04-19T19:30:34.096Z,55.66
2023-04-19T19:31:58.314Z,55.52
2023-04-19T19:33:23.560Z,55.45
2023-04-19T19:35:08.298Z,55.20
2023-04-19T19:37:14.093Z,55.72
2023-04-19T19:39:37.246Z,55.44
2023-04-19T19:42:04.613Z,55.53
2023-04-19T19:44:07.431Z,55.69
2023-04-19T19:48:09.388Z,55.79
2023-04-19T19:52:28.343Z,55.82
2023-04-19T19:53:52.640Z,55.75
2023-04-19T19:55:26.924Z,56.11
2023-04-19T19:58:47.701Z,56.08
2023-04-19T20:00:36.907Z,56.25
2023-04-19T20:02:09.825Z,56.10
2023-04-19T20:03:54.019Z,56.13
2023-04-19T20:05:30.723Z,56.10
2023-04-19T20:09:01.461Z,56.14
2023-04-19T20:10:27.128Z,56.12
2023-04-19T20:11:49.405Z,55.98
2023-04-19T20:13:13.417Z,56.21
2023-04-19T20:14:37.984Z,56.22
2023-04-19T20:16:06.115Z,56.23
2023-04-19T20:17:32.699Z,55.93
2023-04-19T20:18:58.237Z,56.18
2023-04-19T20:20:35.569Z,56.10
2023-04-19T20:22:20.864Z,55.99
2023-04-19T20:23:55.865Z,56.20
2023-04-19T20:25:40.259Z,56.00
2023-04-19T20:27:02.688Z,56.32
2023-04-19T20:28:27.426Z,56.25
2023-04-19T20:30:13.629Z,56.53
2023-04-19T20:31:38.677Z,56.21
2023-04-19T20:33:03.070Z,55.86
2023-04-19T20:34:26.868Z,56.41
2023-04-19T20:35:49.492Z,56.54
2023-04-19T20:37:14.767Z,56.45
2023-04-19T20:38:40.072Z,56.40
2023-04-19T20:40:06.184Z,56.61
2023-04-19T20:41:28.485Z,56.63
2023-04-19T20:42:54.556Z,56.85
2023-04-19T20:44:24.478Z,56.75
2023-04-19T20:47:49.620Z,56.78
2023-04-19T20:49:18.121Z,56.98
2023-04-19T20:50:40.717Z,57.27
2023-04-19T20:52:04.485Z,57.26
2023-04-19T20:53:30.299Z,57.37
2023-04-19T20:55:10.939Z,57.36
2023-04-19T20:56:33.794Z,57.35
2023-04-19T20:57:59.178Z,57.36
2023-04-19T20:59:22.852Z,57.62
2023-04-19T21:01:17.519Z,57.46
2023-04-19T21:02:39.002Z,57.55
2023-04-19T21:04:09.099Z,57.57
2023-04-19T21:05:38.535Z,57.85
2023-04-19T21:07:01.198Z,57.68
2023-04-19T21:08:26.955Z,57.47
2023-04-19T21:10:03.610Z,57.55
2023-04-19T21:11:26.113Z,57.53
2023-04-19T21:16:01.456Z,57.54
2023-04-19T21:17:35.143Z,57.95
2023-04-19T21:18:57.811Z,57.86
2023-04-19T21:20:19.122Z,58.25
2023-04-19T21:21:42.653Z,58.11
2023-04-19T21:23:05.005Z,58.24
2023-04-19T21:24:27.302Z,58.01
2023-04-19T21:26:03.201Z,58.26
2023-04-19T21:27:26.426Z,57.95
2023-04-19T21:28:48.648Z,57.69
2023-04-19T21:30:23.080Z,57.74
2023-04-19T21:31:45.650Z,57.79
2023-04-19T21:33:08.187Z,57.91
2023-04-19T21:34:30.700Z,57.97
2023-04-19T21:35:51.915Z,57.81
2023-04-19T21:37:16.576Z,57.77
2023-04-19T21:38:39.078Z,57.84
2023-04-19T21:40:02.303Z,57.68
2023-04-19T21:41:50.456Z,57.61
2023-04-19T21:43:13.231Z,57.56
2023-04-19T21:44:35.437Z,57.74
2023-04-19T21:45:57.894Z,57.80
2023-04-19T21:47:22.368Z,57.70
2023-04-19T21:48:44.925Z,57.60
2023-04-19T21:50:08.668Z,57.55
2023-04-19T21:51:40.406Z,57.50
2023-04-19T21:53:04.394Z,57.50
2023-04-19T21:54:33.825Z,57.47
2023-04-19T21:55:56.545Z,57.63
2023-04-19T21:57:22.057Z,57.48
2023-04-19T21:58:44.322Z,57.53
2023-04-19T22:00:09.775Z,57.62
2023-04-19T22:01:31.050Z,57.45
2023-04-19T22:02:55.958Z,57.64
2023-04-19T22:04:20.714Z,57.64
2023-04-19T22:05:46.142Z,57.03
2023-04-19T22:07:28.589Z,56.97
2023-04-19T22:08:51.543Z,56.90
2023-04-19T22:10:29.704Z,57.05
2023-04-19T22:11:58.562Z,57.05
2023-04-19T22:13:22.280Z,57.06
2023-04-19T22:14:50.663Z,57.08
2023-04-19T22:16:47.595Z,57.37
2023-04-19T22:18:15.705Z,57.26
2023-04-19T22:19:38.306Z,57.48
2023-04-19T22:21:03.815Z,57.58
2023-04-19T22:22:26.164Z,57.68
2023-04-19T22:23:48.377Z,57.68
2023-04-19T22:25:12.648Z,57.42
2023-04-19T22:26:34.644Z,57.56
2023-04-19T22:27:55.850Z,57.65
2023-04-19T22:29:18.670Z,57.65
2023-04-19T22:31:26.531Z,57.78
2023-04-19T22:32:52.229Z,57.68
2023-04-19T22:34:14.748Z,57.76
2023-04-19T22:35:36.952Z,57.79
2023-04-19T22:36:59.632Z,58.03
2023-04-19T22:38:33.804Z,57.93
2023-04-19T22:39:55.290Z,57.89
2023-04-19T22:41:19.699Z,57.83
2023-04-19T22:42:44.172Z,57.79
2023-04-19T22:44:14.260Z,57.88
2023-04-19T22:45:39.359Z,58.06
2023-04-19T22:47:00.933Z,57.91
2023-04-19T22:48:23.292Z,58.13
2023-04-19T22:49:45.399Z,58.20
2023-04-19T22:51:08.033Z,58.43
2023-04-19T22:52:29.180Z,58.20
2023-04-19T22:53:56.586Z,58.33
2023-04-19T22:55:19.855Z,58.41
2023-04-19T22:56:52.874Z,58.35
2023-04-19T22:58:15.556Z,58.52
2023-04-19T22:59:36.730Z,58.52
2023-04-19T23:00:59.165Z,58.51
2023-04-19T23:02:21.546Z,58.61
2023-04-19T23:03:52.063Z,58.40
2023-04-19T23:05:13.694Z,58.56
2023-04-19T23:06:45.764Z,58.67
2023-04-19T23:08:09.613Z,58.71
2023-04-19T23:09:30.959Z,58.77
2023-04-19T23:10:53.951Z,58.62
2023-04-19T23:12:17.574Z,58.43
2023-04-19T23:13:41.518Z,58.58
2023-04-19T23:15:04.162Z,58.87
2023-04-19T23:16:26.733Z,58.88
2023-04-19T23:17:48.882Z,59.04
2023-04-19T23:19:12.181Z,59.09
2023-04-19T23:20:34.650Z,59.10
2023-04-19T23:21:57.286Z,59.21
2023-04-19T23:23:20.707Z,59.26
2023-04-19T23:24:43.613Z,59.24
2023-04-19T23:26:05.765Z,59.33
2023-04-19T23:27:28.505Z,59.49
2023-04-19T23:28:50.618Z,59.23
2023-04-19T23:30:14.126Z,59.33
2023-04-19T23:31:36.547Z,59.39
2023-04-19T23:33:00.014Z,59.24
2023-04-19T23:34:22.050Z,59.47
2023-04-19T23:35:46.124Z,59.70
2023-04-19T23:37:11.204Z,59.64
2023-04-19T23:38:39.726Z,59.80
2023-04-19T23:40:00.751Z,59.78
2023-04-19T23:41:23.404Z,60.29
2023-04-19T23:42:46.980Z,60.08
2023-04-19T23:44:09.406Z,60.13
2023-04-19T23:45:30.781Z,60.03
2023-04-19T23:46:53.234Z,60.30
2023-04-19T23:48:14.431Z,60.42
2023-04-19T23:49:40.536Z,60.20
2023-04-19T23:51:02.805Z,60.43
2023-04-19T23:52:25.114Z,60.39
2023-04-19T23:53:47.469Z,60.69
2023-04-19T23:55:10.535Z,60.66
2023-04-19T23:56:32.841Z,60.56
2023-04-19T23:57:54.805Z,60.26
2023-04-19T23:59:19.158Z,60.33
